Time,TemperatureF,DewpointF,PressureIn,WindDirection,WindDirectionDegrees,WindSpeedMPH,WindSpeedGustMPH,Humidity,HourlyPrecipIn,Conditions,Clouds,dailyrainin,SoftwareType,DateUTC
2013-03-01 00:13:00,21.3,8.0,30.33,SW,236,0.0,2.0,58,0.00,,,0.00,weatherlink.com 1.10,2013-03-01 07:13:00,
2013-03-01 00:28:00,20.8,9.0,30.33,SW,236,0.0,2.0,60,0.00,,,0.00,weatherlink.com 1.10,2013-03-01 07:28:00,
2013-03-01 00:43:00,21.0,9.0,30.34,SW,236,1.0,2.0,59,0.00,,,0.00,weatherlink.com 1.10,2013-03-01 07:43:00,
2013-03-01 00:58:00,21.4,9.0,30.34,SW,236,1.0,3.0,59,0.00,,,0.00,weatherlink.com 1.10,2013-03-01 07:58:00,
2013-03-01 01:13:00,22.1,9.0,30.34,SW,235,1.0,3.0,57,0.00,,,0.00,weatherlink.com 1.10,2013-03-01 08:13:00,
2013-03-01 01:28:00,21.8,9.0,30.35,SW,235,0.0,4.0,57,0.00,,,0.00,weatherlink.com 1.10,2013-03-01 08:28:00,
2013-03-01 01:43:00,21.9,9.0,30.35,SW,235,0.0,4.0,57,0.00,,,0.00,weatherlink.com 1.10,2013-03-01 08:43:00,
2013-03-01 01:58:00,21.7,8.0,30.35,SW,234,1.0,5.0,57,0.00,,,0.00,weatherlink.com 1.10,2013-03-01 08:58:00,
2013-03-01 02:13:00,21.3,8.0,30.35,SW,234,2.0,4.0,58,0.00,,,0.00,weatherlink.com 1.10,2013-03-01 09:13:00,
2013-03-01 02:28:00,22.1,8.0,30.34,SW,232,1.0,7.0,56,0.00,,,0.00,weatherlink.com 1.10,2013-03-01 09:28:00,
2013-03-01 02:43:00,22.1,8.0,30.35,SW,232,0.0,5.0,56,0.00,,,0.00,weatherlink.com 1.10,2013-03-01 09:43:00,
2013-03-01 02:58:00,21.8,8.0,30.35,SW,232,0.0,1.0,56,0.00,,,0.00,weatherlink.com 1.10,2013-03-01 09:58:00,
2013-03-01 03:13:00,22.0,8.0,30.34,SW,232,3.0,5.0,56,0.00,,,0.00,weatherlink.com 1.10,2013-03-01 10:13:00,
2013-03-01 03:28:00,22.2,8.0,30.34,SW,232,0.0,3.0,55,0.00,,,0.00,weatherlink.com 1.10,2013-03-01 10:28:00,
2013-03-01 03:58:00,22.4,8.0,30.34,SW,231,3.0,5.0,55,0.00,,,0.00,weatherlink.com 1.10,2013-03-01 10:58:00,
2013-03-01 04:13:00,22.4,8.0,30.34,SW,231,3.0,6.0,55,0.00,,,0.00,weatherlink.com 1.10,2013-03-01 11:13:00,
2013-03-01 04:28:00,22.4,8.0,30.34,SW,231,2.0,6.0,55,0.00,,,0.00,weatherlink.com 1.10,2013-03-01 11:28:00,
2013-03-01 04:43:00,22.0,8.0,30.35,SW,230,0.0,3.0,56,0.00,,,0.00,weatherlink.com 1.10,2013-03-01 11:43:00,
2013-03-01 04:58:00,21.4,8.0,30.36,SW,230,0.0,3.0,57,0.00,,,0.00,weatherlink.com 1.10,2013-03-01 11:58:00,
2013-03-01 05:14:00,21.0,8.0,30.35,SW,231,0.0,3.0,58,0.00,,,0.00,weatherlink.com 1.10,2013-03-01 12:14:00,
2013-03-01 05:29:00,20.8,8.0,30.35,SW,230,1.0,4.0,59,0.00,,,0.00,weatherlink.com 1.10,2013-03-01 12:29:00,
2013-03-01 05:44:00,22.0,9.0,30.35,SW,229,0.0,6.0,57,0.00,,,0.00,weatherlink.com 1.10,2013-03-01 12:44:00,
2013-03-01 05:59:00,22.2,9.0,30.36,SW,229,0.0,3.0,56,0.00,,,0.00,weatherlink.com 1.10,2013-03-01 12:59:00,
2013-03-01 06:14:00,20.8,8.0,30.36,SW,229,0.0,2.0,59,0.00,,,0.00,weatherlink.com 1.10,2013-03-01 13:14:00,
2013-03-01 06:29:00,19.7,9.0,30.36,SW,229,0.0,3.0,62,0.00,,,0.00,weatherlink.com 1.10,2013-03-01 13:29:00,
2013-03-01 06:44:00,19.2,8.0,30.37,SW,229,0.0,2.0,63,0.00,,,0.00,weatherlink.com 1.10,2013-03-01 13:44:00,
2013-03-01 06:59:00,19.7,9.0,30.38,SW,229,0.0,2.0,62,0.00,,,0.00,weatherlink.com 1.10,2013-03-01 13:59:00,
2013-03-01 07:14:00,19.7,9.0,30.37,SW,229,2.0,3.0,64,0.00,,,0.00,weatherlink.com 1.10,2013-03-01 14:14:00,
2013-03-01 07:29:00,19.7,9.0,30.37,SW,229,1.0,2.0,64,0.00,,,0.00,weatherlink.com 1.10,2013-03-01 14:29:00,
2013-03-01 07:44:00,23.0,11.0,30.38,SW,229,1.0,5.0,61,0.00,,,0.00,weatherlink.com 1.10,2013-03-01 14:44:00,
2013-03-01 07:59:00,25.4,11.0,30.39,SW,223,0.0,7.0,55,0.00,,,0.00,weatherlink.com 1.10,2013-03-01 14:59:00,
2013-03-01 08:14:00,27.9,12.0,30.39,SW,223,4.0,4.0,52,0.00,,,0.00,weatherlink.com 1.10,2013-03-01 15:14:00,
2013-03-01 08:29:00,29.6,12.0,30.39,SW,223,4.0,7.0,48,0.00,,,0.00,weatherlink.com 1.10,2013-03-01 15:29:00,
2013-03-01 08:44:00,30.6,12.0,30.39,SW,225,3.0,6.0,46,0.00,,,0.00,weatherlink.com 1.10,2013-03-01 15:44:00,
2013-03-01 08:59:00,31.6,12.0,30.38,SW,236,3.0,7.0,45,0.00,,,0.00,weatherlink.com 1.10,2013-03-01 15:59:00,
2013-03-01 09:14:00,31.8,13.0,30.38,WSW,242,2.0,7.0,46,0.00,,,0.00,weatherlink.com 1.10,2013-03-01 16:14:00,
2013-03-01 09:29:00,32.6,13.0,30.38,WSW,246,2.0,6.0,45,0.00,,,0.00,weatherlink.com 1.10,2013-03-01 16:29:00,
2013-03-01 09:45:00,33.3,13.0,30.37,WSW,246,2.0,6.0,44,0.00,,,0.00,weatherlink.com 1.10,2013-03-01 16:45:00,
2013-03-01 10:00:00,34.2,14.0,30.37,WSW,244,3.0,7.0,43,0.00,,,0.00,weatherlink.com 1.10,2013-03-01 17:00:00,
2013-03-01 10:15:00,34.9,14.0,30.36,West,261,0.0,7.0,42,0.00,,,0.00,weatherlink.com 1.10,2013-03-01 17:15:00,
2013-03-01 10:30:00,36.3,14.0,30.36,NW,314,5.0,9.0,40,0.00,,,0.00,weatherlink.com 1.10,2013-03-01 17:30:00,
2013-03-01 10:45:00,37.5,14.0,30.36,NNW,338,0.0,8.0,38,0.00,,,0.00,weatherlink.com 1.10,2013-03-01 17:45:00,
2013-03-01 11:00:00,37.9,14.0,30.36,West,264,5.0,8.0,38,0.00,,,0.00,weatherlink.com 1.10,2013-03-01 18:00:00,
2013-03-01 11:15:00,39.2,15.0,30.34,NW,325,4.0,8.0,37,0.00,,,0.00,weatherlink.com 1.10,2013-03-01 18:15:00,
2013-03-01 11:30:00,40.5,15.0,30.35,West,277,2.0,11.0,36,0.00,,,0.00,weatherlink.com 1.10,2013-03-01 18:30:00,
2013-03-01 11:45:00,40.5,16.0,30.33,NW,307,5.0,7.0,37,0.00,,,0.00,weatherlink.com 1.10,2013-03-01 18:45:00,
2013-03-01 12:00:00,41.2,16.0,30.32,West,280,1.0,8.0,36,0.00,,,0.00,weatherlink.com 1.10,2013-03-01 19:00:00,
2013-03-01 12:15:00,42.1,17.0,30.32,North,360,6.0,11.0,36,0.00,,,0.00,weatherlink.com 1.10,2013-03-01 19:15:00,
2013-03-01 12:30:00,43.8,18.0,30.31,NNW,333,5.0,11.0,35,0.00,,,0.00,weatherlink.com 1.10,2013-03-01 19:30:00,
2013-03-01 12:45:00,43.3,17.0,30.31,NNW,333,6.0,13.0,34,0.00,,,0.00,weatherlink.com 1.10,2013-03-01 19:45:00,
2013-03-01 13:00:00,44.2,17.0,30.29,North,349,9.0,13.0,34,0.00,,,0.00,weatherlink.com 1.10,2013-03-01 20:00:00,
2013-03-01 13:15:00,44.9,18.0,30.29,North,355,4.0,12.0,34,0.00,,,0.00,weatherlink.com 1.10,2013-03-01 20:15:00,
2013-03-01 13:30:00,44.5,18.0,30.28,North,355,9.0,15.0,34,0.00,,,0.00,weatherlink.com 1.10,2013-03-01 20:30:00,
2013-03-01 13:45:00,45.4,17.0,30.27,NW,317,1.0,11.0,32,0.00,,,0.00,weatherlink.com 1.10,2013-03-01 20:45:00,
2013-03-01 14:00:00,45.4,17.0,30.27,NW,325,5.0,12.0,32,0.00,,,0.00,weatherlink.com 1.10,2013-03-01 21:00:00,
2013-03-01 14:15:00,45.9,17.0,30.27,NNW,342,6.0,10.0,32,0.00,,,0.00,weatherlink.com 1.10,2013-03-01 21:15:00,
2013-03-01 14:30:00,46.1,17.0,30.27,NW,322,4.0,11.0,31,0.00,,,0.00,weatherlink.com 1.10,2013-03-01 21:30:00,
2013-03-01 14:45:00,47.0,17.0,30.27,WNW,283,2.0,9.0,30,0.00,,,0.00,weatherlink.com 1.10,2013-03-01 21:45:00,
2013-03-01 15:00:00,46.9,17.0,30.26,West,272,2.0,9.0,30,0.00,,,0.00,weatherlink.com 1.10,2013-03-01 22:00:00,
2013-03-01 15:15:00,47.2,17.0,30.26,NNW,336,9.0,12.0,30,0.00,,,0.00,weatherlink.com 1.10,2013-03-01 22:15:00,
2013-03-01 15:30:00,47.4,18.0,30.26,NNW,340,6.0,12.0,31,0.00,,,0.00,weatherlink.com 1.10,2013-03-01 22:30:00,
2013-03-01 15:45:00,47.2,18.0,30.25,NW,311,5.0,10.0,31,0.00,,,0.00,weatherlink.com 1.10,2013-03-01 22:45:00,
2013-03-01 16:00:00,47.8,18.0,30.25,NW,322,6.0,8.0,30,0.00,,,0.00,weatherlink.com 1.10,2013-03-01 23:00:00,
2013-03-01 16:15:00,48.0,18.0,30.25,WNW,290,1.0,10.0,30,0.00,,,0.00,weatherlink.com 1.10,2013-03-01 23:15:00,
2013-03-01 16:30:00,47.7,18.0,30.24,West,262,3.0,9.0,30,0.00,,,0.00,weatherlink.com 1.10,2013-03-01 23:30:00,
2013-03-01 16:45:00,47.0,17.0,30.25,West,264,4.0,8.0,30,0.00,,,0.00,weatherlink.com 1.10,2013-03-01 23:45:00,
2013-03-01 17:00:00,46.8,17.0,30.25,West,260,2.0,8.0,30,0.00,,,0.00,weatherlink.com 1.10,2013-03-02 00:00:00,
2013-03-01 17:16:00,46.7,17.0,30.24,West,260,2.0,7.0,30,0.00,,,0.00,weatherlink.com 1.10,2013-03-02 00:16:00,
2013-03-01 17:31:00,45.8,17.0,30.24,West,260,0.0,6.0,31,0.00,,,0.00,weatherlink.com 1.10,2013-03-02 00:31:00,
2013-03-01 17:46:00,44.1,17.0,30.24,West,260,0.0,5.0,33,0.00,,,0.00,weatherlink.com 1.10,2013-03-02 00:46:00,
2013-03-01 18:01:00,41.7,16.0,30.25,West,260,0.0,1.0,35,0.00,,,0.00,weatherlink.com 1.10,2013-03-02 01:01:00,
2013-03-01 18:16:00,37.7,16.0,30.26,West,259,0.0,3.0,41,0.00,,,0.00,weatherlink.com 1.10,2013-03-02 01:16:00,
2013-03-01 18:31:00,35.3,15.0,30.27,West,259,1.0,1.0,44,0.00,,,0.00,weatherlink.com 1.10,2013-03-02 01:31:00,
2013-03-01 18:46:00,34.4,15.0,30.27,West,259,0.0,3.0,46,0.00,,,0.00,weatherlink.com 1.10,2013-03-02 01:46:00,
2013-03-01 19:01:00,33.9,15.0,30.27,West,259,0.0,4.0,47,0.00,,,0.00,weatherlink.com 1.10,2013-03-02 02:01:00,
2013-03-01 19:16:00,34.3,16.0,30.27,West,259,1.0,3.0,47,0.00,,,0.00,weatherlink.com 1.10,2013-03-02 02:16:00,
2013-03-01 19:31:00,35.8,16.0,30.27,West,259,2.0,4.0,45,0.00,,,0.00,weatherlink.com 1.10,2013-03-02 02:31:00,
2013-03-01 19:46:00,35.4,16.0,30.27,West,259,1.0,5.0,45,0.00,,,0.00,weatherlink.com 1.10,2013-03-02 02:46:00,
2013-03-01 20:01:00,34.4,16.0,30.28,West,259,3.0,3.0,47,0.00,,,0.00,weatherlink.com 1.10,2013-03-02 03:01:00,
2013-03-01 20:15:00,33.4,16.0,30.29,West,259,0.0,3.0,49,0.00,,,0.00,weatherlink.com 1.10,2013-03-02 03:15:00,
2013-03-01 20:30:00,32.7,16.0,30.29,WSW,254,0.0,5.0,51,0.00,,,0.00,weatherlink.com 1.10,2013-03-02 03:30:00,
2013-03-01 20:45:00,32.2,16.0,30.30,WSW,253,2.0,3.0,51,0.00,,,0.00,weatherlink.com 1.10,2013-03-02 03:45:00,
2013-03-01 21:00:00,31.8,16.0,30.30,WSW,249,0.0,4.0,53,0.00,,,0.00,weatherlink.com 1.10,2013-03-02 04:00:00,
2013-03-01 21:15:00,31.6,16.0,30.31,WSW,248,1.0,4.0,53,0.00,,,0.00,weatherlink.com 1.10,2013-03-02 04:15:00,
2013-03-01 21:30:00,31.4,16.0,30.32,WSW,248,2.0,4.0,53,0.00,,,0.00,weatherlink.com 1.10,2013-03-02 04:30:00,
2013-03-01 21:45:00,31.5,16.0,30.32,WSW,244,2.0,5.0,52,0.00,,,0.00,weatherlink.com 1.10,2013-03-02 04:45:00,
2013-03-01 22:00:00,31.0,16.0,30.32,WSW,244,0.0,3.0,54,0.00,,,0.00,weatherlink.com 1.10,2013-03-02 05:00:00,
2013-03-01 22:15:00,30.5,16.0,30.32,WSW,244,0.0,3.0,55,0.00,,,0.00,weatherlink.com 1.10,2013-03-02 05:15:00,
2013-03-01 22:30:00,30.6,16.0,30.32,WSW,242,0.0,4.0,56,0.00,,,0.00,weatherlink.com 1.10,2013-03-02 05:30:00,
2013-03-01 22:45:00,30.6,16.0,30.32,WSW,242,0.0,3.0,56,0.00,,,0.00,weatherlink.com 1.10,2013-03-02 05:45:00,
2013-03-01 23:00:00,31.0,16.0,30.32,WSW,242,0.0,3.0,55,0.00,,,0.00,weatherlink.com 1.10,2013-03-02 06:00:00,
2013-03-01 23:15:00,30.5,16.0,30.33,WSW,242,0.0,0.0,55,0.00,,,0.00,weatherlink.com 1.10,2013-03-02 06:15:00,
2013-03-01 23:30:00,29.8,16.0,30.34,WSW,242,0.0,4.0,57,0.00,,,0.00,weatherlink.com 1.10,2013-03-02 06:30:00,
2013-03-01 23:45:00,28.8,16.0,30.34,WSW,242,0.0,2.0,58,0.00,,,0.00,weatherlink.com 1.10,2013-03-02 06:45:00,